createdAt,value
2018-03-22T00:00:49.139Z,74.74
2018-03-22T00:01:49.329Z,74.55
2018-03-22T00:02:49.450Z,74.36
2018-03-22T00:03:49.627Z,74.45
2018-03-22T00:04:49.795Z,74.45
2018-03-22T00:05:49.949Z,74.74
2018-03-22T00:06:50.130Z,74.74
2018-03-22T00:07:50.296Z,75.21
2018-03-22T00:08:50.413Z,74.64
2018-03-22T00:09:50.576Z,74.45
2018-03-22T00:10:50.756Z,74.45
2018-03-22T00:11:50.890Z,74.64
2018-03-22T00:12:51.052Z,74.45
2018-03-22T00:13:51.216Z,75.31
2018-03-22T00:14:51.390Z,75.12
2018-03-22T00:15:51.551Z,74.83
2018-03-22T00:16:51.708Z,74.74
2018-03-22T00:17:51.884Z,74.83
2018-03-22T00:18:52.070Z,74.83
2018-03-22T00:19:52.214Z,74.74
2018-03-22T00:20:52.356Z,74.93
2018-03-22T00:21:52.526Z,74.26
2018-03-22T00:22:52.680Z,74.17
2018-03-22T00:23:52.842Z,73.79
2018-03-22T00:24:53.003Z,73.41
2018-03-22T00:25:53.179Z,73.60
2018-03-22T00:27:53.495Z,72.56
2018-03-22T00:28:53.676Z,72.56
2018-03-22T00:29:53.822Z,72.75
2018-03-22T00:30:53.983Z,72.56
2018-03-22T00:31:54.151Z,72.75
2018-03-22T00:32:54.304Z,72.56
2018-03-22T00:33:54.477Z,72.85
2018-03-22T00:34:54.622Z,72.66
2018-03-22T00:35:54.807Z,72.56
2018-03-22T00:36:54.965Z,72.75
2018-03-22T00:37:55.136Z,72.85
2018-03-22T00:38:55.296Z,72.75
2018-03-22T00:39:55.478Z,72.85
2018-03-22T00:40:55.619Z,73.50
2018-03-22T00:41:55.785Z,73.32
2018-03-22T00:42:55.947Z,73.88
2018-03-22T00:43:56.105Z,73.98
2018-03-22T00:44:56.290Z,73.98
2018-03-22T00:45:56.426Z,74.45
2018-03-22T00:46:56.607Z,74.07
2018-03-22T00:47:56.766Z,74.26
2018-03-22T00:48:56.921Z,74.26
2018-03-22T00:49:57.098Z,73.88
2018-03-22T00:50:57.271Z,74.17
2018-03-22T00:51:57.424Z,74.17
2018-03-22T00:52:57.580Z,74.07
2018-03-22T00:53:57.726Z,74.26
2018-03-22T00:54:57.903Z,74.17
2018-03-22T00:55:58.067Z,73.69
2018-03-22T00:56:58.242Z,73.98
2018-03-22T00:57:58.378Z,73.98
2018-03-22T00:58:58.560Z,73.69
2018-03-22T00:59:58.679Z,73.79
2018-03-22T01:00:58.849Z,73.88
2018-03-22T01:02:59.189Z,73.41
2018-03-22T01:03:59.321Z,73.22
2018-03-22T01:04:59.489Z,73.50
2018-03-22T01:05:59.659Z,73.41
2018-03-22T01:06:59.805Z,73.50
2018-03-22T01:08:00.034Z,73.03
2018-03-22T01:09:00.144Z,73.50
2018-03-22T01:10:00.313Z,74.07
2018-03-22T01:11:00.494Z,73.79
2018-03-22T01:12:00.637Z,73.98
2018-03-22T01:13:00.800Z,73.98
2018-03-22T01:14:00.952Z,73.60
2018-03-22T01:15:01.145Z,73.79
2018-03-22T01:16:01.306Z,73.79
2018-03-22T01:17:01.465Z,73.88
2018-03-22T01:18:01.630Z,73.79
2018-03-22T01:19:01.800Z,73.69
2018-03-22T01:20:01.976Z,74.36
2018-03-22T01:21:02.163Z,73.79
2018-03-22T01:22:02.330Z,74.07
2018-03-22T01:23:02.817Z,73.88
2018-03-22T01:24:02.674Z,73.98
2018-03-22T01:25:02.847Z,73.41
2018-03-22T01:26:03.009Z,73.03
2018-03-22T01:27:03.171Z,73.79
2018-03-22T01:28:03.321Z,73.60
2018-03-22T01:29:03.492Z,73.13
2018-03-22T01:30:03.630Z,73.13
2018-03-22T01:31:03.788Z,73.13
2018-03-22T01:32:03.940Z,72.85
2018-03-22T01:33:04.115Z,72.94
2018-03-22T01:34:04.283Z,72.75
2018-03-22T01:35:04.472Z,72.56
2018-03-22T01:36:04.626Z,72.75
2018-03-22T01:37:04.776Z,72.37
2018-03-22T01:38:04.940Z,73.22
2018-03-22T01:39:05.110Z,73.79
2018-03-22T01:40:05.290Z,73.79
2018-03-22T01:41:05.477Z,74.17
2018-03-22T01:42:05.625Z,73.79
2018-03-22T01:43:05.813Z,73.69
2018-03-22T01:44:05.956Z,73.79
2018-03-22T01:45:06.112Z,73.69
2018-03-22T01:46:06.291Z,73.88
2018-03-22T01:47:06.444Z,73.41
2018-03-22T01:48:06.604Z,73.88
2018-03-22T01:49:06.766Z,73.13
2018-03-22T01:50:06.919Z,73.50
2018-03-22T01:51:07.088Z,73.22
2018-03-22T01:52:07.227Z,73.13
2018-03-22T01:53:07.382Z,72.75
2018-03-22T01:54:07.543Z,73.69
2018-03-22T01:55:07.716Z,73.88
2018-03-22T01:56:07.862Z,73.98
2018-03-22T01:57:08.063Z,73.79
2018-03-22T01:58:08.231Z,74.07
2018-03-22T01:59:08.385Z,74.26
2018-03-22T02:00:08.557Z,73.98
2018-03-22T02:01:08.703Z,74.32
2018-03-22T02:02:08.875Z,75.26
2018-03-22T02:03:09.092Z,75.74
2018-03-22T02:04:09.194Z,75.45
2018-03-22T02:05:09.353Z,76.68
2018-03-22T02:06:09.512Z,76.68
2018-03-22T02:07:09.661Z,77.06
2018-03-22T02:08:09.860Z,76.87
2018-03-22T02:09:09.987Z,76.97
2018-03-22T02:10:10.196Z,76.59
2018-03-22T02:11:10.340Z,76.78
2018-03-22T02:12:10.502Z,76.21
2018-03-22T02:13:10.663Z,76.21
2018-03-22T02:14:10.841Z,76.63
2018-03-22T02:15:11.001Z,76.06
2018-03-22T02:16:11.165Z,75.93
2018-03-22T02:17:11.310Z,75.74
2018-03-22T02:18:11.478Z,75.74
2018-03-22T02:19:11.652Z,75.74
2018-03-22T02:20:11.821Z,75.96
2018-03-22T02:21:11.982Z,75.96
2018-03-22T02:22:12.149Z,75.78
2018-03-22T02:23:12.310Z,75.68
2018-03-22T02:24:12.461Z,75.59
2018-03-22T02:25:12.636Z,75.40
2018-03-22T02:26:12.783Z,75.12
2018-03-22T02:27:12.955Z,75.02
2018-03-22T02:28:13.111Z,74.45
2018-03-22T02:29:13.272Z,74.83
2018-03-22T02:30:13.431Z,74.55
2018-03-22T02:31:13.599Z,74.74
2018-03-22T02:32:13.764Z,74.26
2018-03-22T02:33:13.914Z,74.36
2018-03-22T02:34:14.105Z,74.45
2018-03-22T02:35:14.241Z,74.74
2018-03-22T02:36:14.396Z,74.45
2018-03-22T02:37:14.586Z,75.02
2018-03-22T02:38:14.761Z,75.12
2018-03-22T02:39:14.913Z,74.64
2018-03-22T02:40:15.100Z,74.74
2018-03-22T02:41:15.251Z,74.55
2018-03-22T02:42:15.414Z,74.17
2018-03-22T02:43:15.565Z,74.64
2018-03-22T02:44:15.725Z,74.36
2018-03-22T02:45:15.902Z,74.45
2018-03-22T02:46:16.094Z,74.26
2018-03-22T02:47:16.250Z,74.74
2018-03-22T02:48:16.408Z,74.36
2018-03-22T02:49:16.584Z,74.36
2018-03-22T02:50:16.761Z,74.83
2018-03-22T02:51:16.898Z,75.02
2018-03-22T02:52:17.053Z,75.12
2018-03-22T02:53:17.204Z,75.49
2018-03-22T02:54:17.382Z,75.40
2018-03-22T02:55:17.545Z,75.78
2018-03-22T02:56:17.706Z,75.78
2018-03-22T02:57:17.867Z,75.96
2018-03-22T02:58:18.031Z,76.06
2018-03-22T02:59:18.208Z,75.31
2018-03-22T03:00:18.353Z,74.83
2018-03-22T03:01:18.534Z,75.31
2018-03-22T03:02:18.693Z,75.49
2018-03-22T03:03:18.859Z,75.78
2018-03-22T03:04:19.270Z,75.68
2018-03-22T03:05:19.210Z,75.68
2018-03-22T03:06:19.337Z,75.96
2018-03-22T03:07:19.509Z,75.87
2018-03-22T03:08:19.651Z,76.25
2018-03-22T03:09:19.828Z,75.49
2018-03-22T03:10:19.996Z,75.68
2018-03-22T03:11:20.164Z,75.78
2018-03-22T03:12:20.306Z,75.49
2018-03-22T03:13:20.487Z,75.12
2018-03-22T03:14:20.635Z,74.93
2018-03-22T03:15:20.787Z,75.21
2018-03-22T03:16:21.004Z,75.49
2018-03-22T03:17:21.104Z,75.40
2018-03-22T03:18:21.269Z,75.68
2018-03-22T03:19:21.419Z,75.12
2018-03-22T03:20:21.828Z,75.49
2018-03-22T03:21:21.738Z,75.68
2018-03-22T03:22:21.884Z,76.12
2018-03-22T03:23:22.050Z,75.59
2018-03-22T03:24:22.452Z,75.87
2018-03-22T03:25:22.356Z,75.78
2018-03-22T03:26:22.521Z,76.15
2018-03-22T03:27:22.689Z,75.68
2018-03-22T03:28:22.836Z,76.15
2018-03-22T03:29:23.004Z,75.68
2018-03-22T03:30:23.273Z,75.49
2018-03-22T03:31:23.342Z,75.78
2018-03-22T03:32:23.486Z,74.83
2018-03-22T03:33:23.675Z,75.31
2018-03-22T03:34:23.823Z,74.93
2018-03-22T03:35:23.987Z,74.93
2018-03-22T03:36:24.138Z,75.12
2018-03-22T03:37:24.301Z,75.02
2018-03-22T03:38:24.464Z,75.12
2018-03-22T03:39:24.632Z,75.49
2018-03-22T03:40:24.802Z,75.21
2018-03-22T03:41:24.949Z,75.78
2018-03-22T03:43:25.243Z,75.68
2018-03-22T03:44:25.423Z,75.40
2018-03-22T03:45:25.592Z,75.68
2018-03-22T03:46:25.755Z,75.59
2018-03-22T03:47:25.946Z,75.68
2018-03-22T03:48:26.078Z,75.49
2018-03-22T03:49:26.246Z,75.68
2018-03-22T03:50:26.413Z,75.68
2018-03-22T03:51:26.571Z,76.06
2018-03-22T03:52:26.730Z,75.49
2018-03-22T03:53:26.901Z,75.68
2018-03-22T03:54:27.063Z,75.12
2018-03-22T03:55:27.216Z,75.02
2018-03-22T03:56:27.368Z,75.40
2018-03-22T03:57:27.545Z,75.31
2018-03-22T03:58:28.041Z,75.87
2018-03-22T03:59:27.891Z,75.21
2018-03-22T04:00:28.024Z,74.83
2018-03-22T04:01:28.184Z,75.02
2018-03-22T04:02:28.368Z,75.49
2018-03-22T04:03:28.539Z,75.31
2018-03-22T04:04:28.688Z,74.93
2018-03-22T04:05:28.895Z,75.40
2018-03-22T04:06:29.008Z,75.87
2018-03-22T04:07:29.159Z,75.49
2018-03-22T04:08:29.311Z,75.49
2018-03-22T04:09:29.536Z,76.06
2018-03-22T04:10:29.630Z,76.06
2018-03-22T04:11:29.797Z,75.87
2018-03-22T04:12:30.003Z,75.40
2018-03-22T04:13:30.194Z,75.87
2018-03-22T04:14:30.366Z,76.53
2018-03-22T04:15:30.528Z,75.78
2018-03-22T04:16:30.692Z,75.40
2018-03-22T04:17:30.862Z,75.68
2018-03-22T04:18:31.004Z,75.68
2018-03-22T04:19:31.181Z,76.44
2018-03-22T04:20:31.326Z,76.63
2018-03-22T04:21:31.505Z,76.25
2018-03-22T04:22:31.676Z,75.68
2018-03-22T04:23:31.828Z,76.34
2018-03-22T04:24:31.994Z,76.15
2018-03-22T04:25:32.159Z,76.15
2018-03-22T04:26:32.328Z,75.87
2018-03-22T04:27:32.728Z,76.63
2018-03-22T04:28:32.656Z,76.63
2018-03-22T04:29:32.816Z,76.63
2018-03-22T04:30:32.960Z,75.68
2018-03-22T04:31:33.118Z,75.78
2018-03-22T04:32:33.285Z,75.68
2018-03-22T04:33:33.450Z,75.49
2018-03-22T04:34:33.633Z,75.02
2018-03-22T04:35:33.767Z,74.87
2018-03-22T04:36:33.939Z,74.40
2018-03-22T04:37:34.087Z,74.40
2018-03-22T04:38:34.257Z,74.40
2018-03-22T04:39:34.418Z,74.26
2018-03-22T04:40:34.566Z,74.30
2018-03-22T04:41:34.742Z,74.40
2018-03-22T04:42:34.899Z,74.45
2018-03-22T04:43:35.058Z,74.77
2018-03-22T04:44:35.239Z,75.21
2018-03-22T04:45:35.379Z,75.87
2018-03-22T04:46:35.812Z,75.96
2018-03-22T04:47:35.694Z,75.96
2018-03-22T04:48:35.858Z,76.44
2018-03-22T04:49:36.014Z,75.68
2018-03-22T04:50:36.211Z,76.00
2018-03-22T04:51:36.341Z,75.40
2018-03-22T04:52:36.522Z,75.59
2018-03-22T04:53:36.676Z,75.72
2018-03-22T04:54:36.852Z,75.31
2018-03-22T04:55:37.027Z,76.06
2018-03-22T04:56:37.195Z,75.78
2018-03-22T04:57:37.357Z,75.68
2018-03-22T04:58:37.511Z,75.49
2018-03-22T04:59:37.934Z,75.34
2018-03-22T05:00:37.851Z,75.34
2018-03-22T05:01:38.019Z,75.40
2018-03-22T05:02:38.186Z,75.31
2018-03-22T05:03:38.358Z,75.49
2018-03-22T05:04:38.514Z,75.96
2018-03-22T05:05:38.675Z,76.06
2018-03-22T05:06:38.842Z,75.87
2018-03-22T05:07:39.006Z,75.96
2018-03-22T05:08:39.168Z,75.68
2018-03-22T05:09:39.346Z,76.25
2018-03-22T05:10:39.522Z,76.15
2018-03-22T05:11:39.660Z,77.20
2018-03-22T05:12:39.818Z,77.10
2018-03-22T05:13:39.979Z,76.25
2018-03-22T05:14:40.144Z,76.63
2018-03-22T05:15:40.301Z,77.10
2018-03-22T05:16:40.478Z,76.91
2018-03-22T05:17:40.632Z,77.01
2018-03-22T05:18:40.869Z,76.25
2018-03-22T05:19:40.940Z,76.15
2018-03-22T05:20:41.122Z,76.57
2018-03-22T05:21:41.285Z,76.67
2018-03-22T05:22:41.442Z,76.19
2018-03-22T05:23:41.617Z,76.19
2018-03-22T05:24:41.793Z,76.57
2018-03-22T05:25:41.923Z,76.00
2018-03-22T05:26:42.099Z,76.29
2018-03-22T05:27:42.290Z,76.10
2018-03-22T05:28:42.417Z,76.19
2018-03-22T05:29:42.582Z,76.19
2018-03-22T05:30:42.732Z,76.29
2018-03-22T05:31:42.904Z,76.10
2018-03-22T05:32:43.042Z,76.29
2018-03-22T05:33:43.218Z,76.48
2018-03-22T05:34:43.605Z,77.04
2018-03-22T05:35:43.535Z,76.86
2018-03-22T05:36:43.721Z,77.51
2018-03-22T05:37:43.849Z,77.51
2018-03-22T05:38:44.036Z,77.70
2018-03-22T05:39:44.191Z,77.99
2018-03-22T05:40:44.342Z,78.37
2018-03-22T05:41:44.532Z,79.18
2018-03-22T05:42:44.683Z,78.75
2018-03-22T05:43:44.896Z,78.71
2018-03-22T05:44:45.021Z,79.66
2018-03-22T05:45:45.174Z,80.07
2018-03-22T05:46:45.372Z,80.07
2018-03-22T05:47:45.537Z,80.45
2018-03-22T05:48:45.706Z,80.74
2018-03-22T05:49:45.851Z,80.36
2018-03-22T05:50:46.024Z,80.64
2018-03-22T05:51:46.192Z,80.79
2018-03-22T05:52:46.351Z,80.88
2018-03-22T05:53:46.525Z,81.26
2018-03-22T05:54:46.677Z,80.88
2018-03-22T05:55:46.828Z,81.55
2018-03-22T05:56:47.002Z,81.93
2018-03-22T05:57:47.153Z,81.93
2018-03-22T05:58:47.309Z,82.68
2018-03-22T05:59:47.497Z,82.87
2018-03-22T06:00:47.648Z,83.25
2018-03-22T06:01:47.808Z,83.44
2018-03-22T06:02:47.968Z,83.44
2018-03-22T06:03:48.126Z,84.20
2018-03-22T06:04:48.292Z,84.58
2018-03-22T06:05:48.459Z,84.77
2018-03-22T06:06:48.634Z,85.14
2018-03-22T06:07:48.798Z,85.42
2018-03-22T06:08:49.033Z,85.14
2018-03-22T06:09:49.152Z,86.28
2018-03-22T06:10:49.302Z,86.56
2018-03-22T06:11:49.469Z,86.37
2018-03-22T06:12:49.607Z,86.75
2018-03-22T06:13:49.763Z,86.66
2018-03-22T06:14:49.909Z,86.47
2018-03-22T06:15:50.069Z,86.85
2018-03-22T06:16:50.241Z,86.66
2018-03-22T06:17:50.413Z,87.04
2018-03-22T06:18:50.572Z,86.75
2018-03-22T06:19:50.735Z,86.75
2018-03-22T06:20:50.894Z,86.94
2018-03-22T06:21:51.069Z,86.75
2018-03-22T06:22:51.457Z,86.94
2018-03-22T06:23:51.374Z,86.56
2018-03-22T06:24:51.532Z,86.75
2018-03-22T06:25:51.700Z,86.09
2018-03-22T06:26:51.860Z,86.66
2018-03-22T06:27:52.025Z,86.18
2018-03-22T06:28:52.191Z,85.90
2018-03-22T06:29:52.352Z,86.37
2018-03-22T06:30:52.546Z,85.80
2018-03-22T06:31:52.679Z,86.18
2018-03-22T06:32:52.899Z,86.04
2018-03-22T06:33:53.017Z,85.61
2018-03-22T06:34:53.180Z,85.24
2018-03-22T06:35:53.629Z,86.18
2018-03-22T06:36:53.504Z,86.09
2018-03-22T06:37:53.696Z,86.47
2018-03-22T06:38:53.927Z,86.56
2018-03-22T06:39:54.040Z,86.47
2018-03-22T06:40:54.208Z,86.18
2018-03-22T06:41:54.371Z,86.09
2018-03-22T06:42:54.552Z,85.94
2018-03-22T06:43:54.725Z,86.70
2018-03-22T06:44:54.887Z,86.18
2018-03-22T06:45:55.043Z,86.32
2018-03-22T06:46:55.223Z,86.28
2018-03-22T06:47:55.383Z,86.41
2018-03-22T06:48:55.577Z,86.89
2018-03-22T06:49:55.702Z,86.51
2018-03-22T06:50:55.926Z,86.70
2018-03-22T06:51:56.051Z,86.60
2018-03-22T06:52:56.199Z,86.70
2018-03-22T06:53:56.366Z,86.70
2018-03-22T06:54:56.594Z,86.47
2018-03-22T06:55:56.724Z,86.75
2018-03-22T06:56:56.894Z,87.70
2018-03-22T06:57:57.017Z,87.55
2018-03-22T06:58:57.229Z,87.41
2018-03-22T06:59:57.368Z,87.70
2018-03-22T07:00:57.530Z,87.41
2018-03-22T07:01:57.709Z,88.26
2018-03-22T07:02:58.125Z,88.55
2018-03-22T07:03:58.027Z,88.07
2018-03-22T07:04:58.204Z,87.79
2018-03-22T07:05:58.342Z,87.36
2018-03-22T07:06:58.525Z,87.46
2018-03-22T07:07:58.665Z,87.65
2018-03-22T07:08:58.836Z,87.55
2018-03-22T07:09:59.019Z,87.55
2018-03-22T07:10:59.185Z,86.79
2018-03-22T07:11:59.321Z,87.46
2018-03-22T07:12:59.499Z,86.79
2018-03-22T07:13:59.683Z,86.89
2018-03-22T07:14:59.824Z,86.89
2018-03-22T07:16:01.990Z,86.32
2018-03-22T07:17:00.165Z,86.51
2018-03-22T07:18:00.355Z,85.85
2018-03-22T07:19:00.483Z,85.47
2018-03-22T07:20:00.682Z,85.19
2018-03-22T07:21:01.038Z,85.00
2018-03-22T07:22:00.967Z,84.90
2018-03-22T07:23:01.178Z,84.05
2018-03-22T07:24:01.332Z,84.23
2018-03-22T07:25:01.489Z,83.95
2018-03-22T07:26:01.637Z,84.05
2018-03-22T07:27:01.815Z,84.05
2018-03-22T07:28:01.966Z,84.23
2018-03-22T07:29:02.142Z,84.19
2018-03-22T07:30:02.303Z,83.71
2018-03-22T07:31:02.474Z,83.33
2018-03-22T07:32:02.618Z,83.52
2018-03-22T07:33:02.850Z,83.24
2018-03-22T07:34:02.985Z,83.52
2018-03-22T07:35:03.148Z,82.95
2018-03-22T07:36:03.342Z,82.20
2018-03-22T07:37:03.477Z,82.10
2018-03-22T07:38:03.646Z,82.10
2018-03-22T07:39:03.849Z,82.20
2018-03-22T07:40:04.008Z,82.20
2018-03-22T07:41:04.099Z,82.10
2018-03-22T07:42:04.263Z,82.01
2018-03-22T07:43:04.491Z,82.53
2018-03-22T07:44:04.596Z,82.01
2018-03-22T07:45:04.801Z,82.01
2018-03-22T07:46:04.934Z,81.82
2018-03-22T07:47:05.076Z,82.06
2018-03-22T07:48:05.238Z,81.63
2018-03-22T07:49:05.404Z,81.82
2018-03-22T07:50:05.563Z,80.96
2018-03-22T07:51:05.720Z,81.49
2018-03-22T07:52:05.898Z,81.49
2018-03-22T07:53:06.055Z,80.40
2018-03-22T07:54:06.232Z,80.11
2018-03-22T07:55:06.394Z,80.49
2018-03-22T07:56:06.535Z,80.11
2018-03-22T07:57:06.687Z,80.02
2018-03-22T07:58:06.853Z,79.74
2018-03-22T07:59:07.045Z,79.74
2018-03-22T08:00:07.194Z,80.49
2018-03-22T08:01:07.371Z,80.30
2018-03-22T08:02:07.514Z,80.21
2018-03-22T08:03:07.683Z,80.21
2018-03-22T08:04:07.863Z,80.21
2018-03-22T08:05:08.021Z,80.30
2018-03-22T08:07:08.421Z,80.40
2018-03-22T08:08:08.564Z,80.87
2018-03-22T08:09:08.702Z,80.87
2018-03-22T08:10:08.852Z,80.68
2018-03-22T08:11:09.009Z,81.21
2018-03-22T08:12:09.413Z,81.72
2018-03-22T08:13:09.321Z,81.25
2018-03-22T08:14:09.489Z,81.15
2018-03-22T08:15:09.666Z,81.25
2018-03-22T08:16:09.832Z,81.34
2018-03-22T08:17:09.987Z,80.96
2018-03-22T08:18:10.125Z,81.25
2018-03-22T08:19:10.302Z,81.53
2018-03-22T08:20:10.475Z,81.53
2018-03-22T08:21:10.652Z,81.82
2018-03-22T08:22:10.825Z,81.44
2018-03-22T08:23:10.987Z,81.44
2018-03-22T08:24:11.169Z,81.72
2018-03-22T08:25:11.304Z,81.82
2018-03-22T08:26:11.464Z,81.63
2018-03-22T08:27:11.624Z,82.39
2018-03-22T08:28:11.789Z,82.39
2018-03-22T08:29:11.932Z,82.01
2018-03-22T08:30:12.108Z,82.48
2018-03-22T08:31:12.277Z,82.01
2018-03-22T08:32:12.481Z,82.86
2018-03-22T08:33:12.579Z,82.95
2018-03-22T08:34:12.748Z,83.52
2018-03-22T08:35:12.914Z,83.62
2018-03-22T08:36:13.082Z,84.19
2018-03-22T08:37:13.240Z,84.28
2018-03-22T08:38:13.399Z,84.19
2018-03-22T08:39:13.581Z,84.38
2018-03-22T08:40:13.750Z,84.38
2018-03-22T08:41:13.965Z,84.19
2018-03-22T08:42:14.077Z,83.90
2018-03-22T08:43:14.242Z,84.56
2018-03-22T08:44:14.395Z,84.81
2018-03-22T08:45:14.553Z,84.94
2018-03-22T08:46:14.712Z,85.66
2018-03-22T08:47:14.871Z,85.99
2018-03-22T08:48:15.043Z,85.80
2018-03-22T08:49:15.196Z,86.18
2018-03-22T08:50:15.385Z,85.99
2018-03-22T08:51:15.554Z,85.32
2018-03-22T08:52:15.702Z,85.70
2018-03-22T08:53:15.868Z,85.23
2018-03-22T08:54:16.048Z,85.61
2018-03-22T08:55:16.219Z,85.70
2018-03-22T08:56:16.377Z,86.83
2018-03-22T08:57:16.555Z,86.93
2018-03-22T08:58:16.702Z,86.65
2018-03-22T08:59:16.885Z,87.84
2018-03-22T09:00:17.042Z,87.55
2018-03-22T09:01:17.201Z,88.02
2018-03-22T09:02:17.347Z,88.97
2018-03-22T09:03:17.519Z,88.97
2018-03-22T09:04:17.676Z,88.87
2018-03-22T09:05:17.847Z,89.35
2018-03-22T09:06:18.023Z,89.54
2018-03-22T09:07:18.186Z,89.35
2018-03-22T09:08:18.337Z,89.63
2018-03-22T09:09:18.512Z,90.30
2018-03-22T09:10:18.701Z,90.96
2018-03-22T09:11:18.850Z,90.96
2018-03-22T09:12:19.008Z,90.77
2018-03-22T09:13:19.216Z,91.15
2018-03-22T09:14:19.369Z,92.00
2018-03-22T09:15:19.515Z,92.10
2018-03-22T09:16:19.676Z,92.19
2018-03-22T09:17:19.841Z,92.47
2018-03-22T09:18:20.014Z,92.19
2018-03-22T09:19:20.186Z,92.76
2018-03-22T09:20:20.335Z,92.29
2018-03-22T09:21:20.538Z,92.94
2018-03-22T09:22:20.677Z,92.85
2018-03-22T09:23:21.076Z,93.04
2018-03-22T09:24:20.997Z,92.76
2018-03-22T09:25:21.176Z,92.00
2018-03-22T09:26:21.346Z,92.00
2018-03-22T09:27:21.498Z,93.04
2018-03-22T09:28:21.672Z,92.94
2018-03-22T09:29:21.831Z,92.76
2018-03-22T09:30:21.988Z,92.66
2018-03-22T09:31:22.142Z,93.42
2018-03-22T09:32:22.311Z,93.23
2018-03-22T09:33:22.472Z,93.23
2018-03-22T09:34:22.636Z,93.23
2018-03-22T09:35:22.780Z,93.32
2018-03-22T09:36:22.950Z,92.94
2018-03-22T09:37:23.107Z,92.85
2018-03-22T09:38:23.292Z,93.04
2018-03-22T09:39:23.426Z,92.57
2018-03-22T09:40:23.596Z,91.81
2018-03-22T09:41:23.725Z,92.29
2018-03-22T09:42:23.903Z,92.10
2018-03-22T09:43:24.064Z,92.29
2018-03-22T09:44:24.246Z,92.29
2018-03-22T09:45:24.429Z,92.00
2018-03-22T09:46:24.607Z,92.00
2018-03-22T09:47:24.775Z,92.10
2018-03-22T09:48:24.934Z,92.19
2018-03-22T09:49:25.106Z,91.91
2018-03-22T09:50:25.303Z,91.81
2018-03-22T09:51:25.445Z,91.91
2018-03-22T09:52:25.620Z,91.53
2018-03-22T09:53:25.790Z,91.43
2018-03-22T09:54:25.930Z,91.43
2018-03-22T09:55:26.105Z,90.81
2018-03-22T09:56:26.268Z,89.96
2018-03-22T09:57:26.434Z,90.25
2018-03-22T09:58:26.622Z,90.34
2018-03-22T09:59:26.784Z,90.34
2018-03-22T10:00:26.941Z,89.87
2018-03-22T10:01:27.103Z,90.06
2018-03-22T10:02:27.259Z,90.15
2018-03-22T10:03:27.420Z,89.39
2018-03-22T10:04:27.569Z,89.01
2018-03-22T10:05:27.737Z,88.73
2018-03-22T10:06:27.924Z,89.01
2018-03-22T10:07:28.047Z,89.11
2018-03-22T10:08:28.241Z,88.54
2018-03-22T10:09:28.375Z,88.54
2018-03-22T10:10:28.563Z,88.82
2018-03-22T10:11:28.727Z,88.54
2018-03-22T10:12:28.914Z,88.82
2018-03-22T10:13:29.035Z,89.01
2018-03-22T10:14:29.234Z,88.17
2018-03-22T10:15:29.407Z,88.17
2018-03-22T10:16:29.594Z,87.78
2018-03-22T10:17:29.775Z,87.50
2018-03-22T10:18:29.923Z,87.78
2018-03-22T10:19:30.107Z,87.50
2018-03-22T10:20:30.237Z,87.50
2018-03-22T10:21:30.405Z,87.98
2018-03-22T10:22:30.559Z,87.88
2018-03-22T10:23:30.724Z,87.21
2018-03-22T10:24:30.917Z,87.59
2018-03-22T10:25:31.053Z,87.40
2018-03-22T10:26:31.220Z,87.21
2018-03-22T10:27:31.399Z,87.50
2018-03-22T10:28:31.564Z,87.59
2018-03-22T10:29:31.752Z,87.69
2018-03-22T10:30:31.920Z,87.02
2018-03-22T10:31:32.106Z,87.21
2018-03-22T10:32:32.253Z,87.88
2018-03-22T10:33:32.460Z,87.78
2018-03-22T10:34:32.625Z,88.17
2018-03-22T10:35:32.810Z,87.50
2018-03-22T10:36:32.993Z,87.78
2018-03-22T10:38:33.316Z,87.98
2018-03-22T10:39:33.457Z,87.50
2018-03-22T10:40:33.616Z,87.59
2018-03-22T10:41:33.801Z,87.50
2018-03-22T10:42:33.930Z,87.98
2018-03-22T10:43:34.095Z,87.88
2018-03-22T10:44:34.237Z,87.50
2018-03-22T10:45:34.425Z,87.78
2018-03-22T10:46:34.570Z,88.07
2018-03-22T10:47:34.764Z,88.07
2018-03-22T10:48:34.912Z,88.92
2018-03-22T10:49:35.093Z,88.17
2018-03-22T10:50:35.277Z,88.35
2018-03-22T10:51:35.401Z,88.82
2018-03-22T10:52:35.558Z,88.26
2018-03-22T10:53:35.720Z,88.07
2018-03-22T10:54:35.905Z,88.82
2018-03-22T10:55:36.078Z,88.82
2018-03-22T10:56:36.258Z,89.20
2018-03-22T10:57:36.412Z,88.92
2018-03-22T10:58:36.608Z,88.92
2018-03-22T10:59:36.820Z,90.06
2018-03-22T11:00:36.975Z,89.68
2018-03-22T11:01:37.128Z,90.15
2018-03-22T11:02:37.287Z,89.87
2018-03-22T11:03:37.713Z,90.34
2018-03-22T11:04:37.600Z,90.53
2018-03-22T11:05:37.782Z,90.34
2018-03-22T11:06:37.935Z,91.00
2018-03-22T11:07:38.103Z,90.34
2018-03-22T11:08:38.282Z,90.63
2018-03-22T11:09:38.457Z,90.63
2018-03-22T11:10:38.627Z,91.00
2018-03-22T11:11:38.776Z,91.19
2018-03-22T11:12:38.945Z,91.48
2018-03-22T11:13:39.100Z,91.86
2018-03-22T11:14:39.266Z,91.57
2018-03-22T11:15:39.422Z,91.48
2018-03-22T11:16:39.847Z,91.67
2018-03-22T11:17:39.751Z,91.86
2018-03-22T11:18:39.929Z,91.76
2018-03-22T11:19:40.096Z,91.67
2018-03-22T11:20:40.304Z,91.00
2018-03-22T11:21:40.454Z,91.86
2018-03-22T11:22:40.588Z,92.05
2018-03-22T11:23:40.773Z,92.24
2018-03-22T11:24:40.972Z,91.95
2018-03-22T11:25:41.136Z,91.52
2018-03-22T11:26:41.301Z,91.67
2018-03-22T11:27:41.465Z,92.24
2018-03-22T11:28:41.647Z,91.95
2018-03-22T11:29:41.833Z,91.86
2018-03-22T11:30:41.967Z,91.86
2018-03-22T11:31:42.147Z,92.00
2018-03-22T11:32:42.276Z,91.76
2018-03-22T11:33:42.439Z,92.24
2018-03-22T11:34:42.588Z,92.14
2018-03-22T11:35:42.776Z,92.52
2018-03-22T11:36:42.907Z,92.61
2018-03-22T11:37:43.086Z,92.90
2018-03-22T11:38:43.264Z,92.24
2018-03-22T11:39:43.422Z,92.38
2018-03-22T11:40:43.592Z,92.19
2018-03-22T11:41:43.793Z,91.95
2018-03-22T11:42:43.931Z,92.28
2018-03-22T11:43:44.083Z,92.61
2018-03-22T11:44:44.259Z,92.61
2018-03-22T11:45:44.405Z,91.90
2018-03-22T11:46:44.576Z,92.19
2018-03-22T11:47:44.772Z,92.24
2018-03-22T11:48:44.937Z,92.14
2018-03-22T11:49:45.079Z,92.99
2018-03-22T11:50:45.253Z,92.43
2018-03-22T11:51:45.894Z,92.80
2018-03-22T11:52:45.566Z,92.33
2018-03-22T11:53:45.740Z,92.24
2018-03-22T11:54:45.935Z,92.71
2018-03-22T11:55:46.086Z,92.80
2018-03-22T11:56:46.273Z,93.65
2018-03-22T11:57:46.422Z,93.75
2018-03-22T11:58:46.590Z,93.84
2018-03-22T11:59:46.769Z,93.56
2018-03-22T12:00:46.953Z,93.46
2018-03-22T12:01:47.130Z,93.27
2018-03-22T12:02:47.302Z,92.90
2018-03-22T12:03:47.444Z,92.99
2018-03-22T12:04:47.650Z,92.80
2018-03-22T12:05:47.772Z,92.76
2018-03-22T12:06:47.998Z,92.71
2018-03-22T12:07:48.190Z,92.52
2018-03-22T12:08:48.309Z,92.43
2018-03-22T12:09:48.577Z,92.90
2018-03-22T12:10:48.681Z,93.18
2018-03-22T12:11:48.867Z,93.04
2018-03-22T12:12:49.056Z,92.90
2018-03-22T12:13:49.257Z,92.94
2018-03-22T12:14:49.468Z,92.94
2018-03-22T12:15:49.579Z,92.71
2018-03-22T12:16:49.741Z,92.85
2018-03-22T12:17:49.930Z,93.04
2018-03-22T12:18:50.081Z,92.47
2018-03-22T12:19:50.254Z,92.00
2018-03-22T12:20:50.436Z,92.38
2018-03-22T12:21:50.597Z,91.86
2018-03-22T12:22:50.856Z,92.28
2018-03-22T12:23:50.986Z,92.28
2018-03-22T12:24:51.209Z,92.28
2018-03-22T12:25:51.407Z,92.09
2018-03-22T12:26:51.596Z,92.28
2018-03-22T12:27:51.734Z,92.09
2018-03-22T12:28:51.885Z,92.38
2018-03-22T12:29:52.077Z,92.19
2018-03-22T12:30:52.274Z,91.52
2018-03-22T12:31:52.370Z,91.90
2018-03-22T12:32:52.545Z,91.90
2018-03-22T12:33:52.703Z,91.62
2018-03-22T12:34:52.896Z,91.81
2018-03-22T12:35:53.066Z,91.62
2018-03-22T12:36:53.207Z,91.81
2018-03-22T12:37:53.378Z,91.52
2018-03-22T12:38:53.542Z,90.95
2018-03-22T12:39:53.704Z,91.62
2018-03-22T12:40:53.880Z,91.24
2018-03-22T12:41:54.060Z,91.43
2018-03-22T12:42:54.208Z,91.52
2018-03-22T12:43:54.377Z,91.52
2018-03-22T12:44:54.560Z,90.95
2018-03-22T12:45:54.733Z,91.52
2018-03-22T12:46:54.913Z,91.52
2018-03-22T12:47:55.091Z,92.00
2018-03-22T12:48:55.325Z,91.43
2018-03-22T12:49:55.408Z,91.43
2018-03-22T12:50:55.673Z,91.24
2018-03-22T12:51:55.730Z,91.52
2018-03-22T12:52:55.920Z,91.24
2018-03-22T12:53:56.065Z,91.52
2018-03-22T12:54:56.271Z,91.43
2018-03-22T12:55:56.440Z,91.62
2018-03-22T12:56:56.616Z,91.43
2018-03-22T12:57:56.762Z,91.52
2018-03-22T12:58:56.935Z,91.81
2018-03-22T12:59:57.107Z,91.33